Accueil
METAR-TAF:

METAR-TAF

Aéroports :

Koweït, Koweït

Aéroport international de Koweït

latitude: 29-13N, longitude: 047-59E, altitude: 55 m

Observation

Le bulletin a été fait il y a 2 heures et 14 minutes, à 15:00 UTC
Vent 7 kt de nord
Température 22°C
Humidité 31%
Pression 1015 hPa
Visibilité 10 km ou plus
pas de nuages en-dessous de 1500 mètres et pas de cumulonimbus.

METAR: OKBK 201500Z 35007KT CAVOK 22/04 Q1015 NOSIG

Heure: 20:14 (17:14 UTC)

Prévision

Le bulletin a été fait il y a 6 heures et 29 minutes, à 10:45 UTC
Prévision valable du 20 à 12 UTC au 21 à 18 UTC
Vent 8 kt de nord/nord-ouest
Visibilité: 7000 m
Temporairement
du 20 à 19 UTC au 21 à 06 UTC
Vent 3 kt de direction variable

TAF: OKBK 201045Z 2012/2118 34008KT 7000 NSC TEMPO 2019/2106 VRB03KT

Observations et prévisions météorologiques de plus de 4000 aéroports (messages METAR et TAF).

Les stations disponibles sont représentées par des disques jaunes et rouges sur la carte.

Passer la souris dessus pour voir le nom de la station.

Cliquer dessus pour voir les observations et prévisions météorologiques.

Pour changer de carte: cliquez sur les boutons verts avec une croix noire pour zoomer, sur le bouton vert avec un tiret pour effectuer un zoom arrière, ou sur les flèches vertes pour les cartes adjacentes.


METAR-TAF: